Time;durP1;ratioP1;P1;durP2;ratioP2;P2;SDS_P1;SDS_P2;PMS_P1;PMS_P2;Temp;Humidity;BMP_temperature;BMP_pressure;BME280_temperature;BME280_humidity;BME280_pressure;Samples;Min_cycle;Max_cycle;Signal;HPM_P1;HPM_P2
2022/07/25 00:00:58;;;;;;;22.67;11.07;;;;;;;;;;5091745;28;20043;-73
2022/07/25 00:04:03;;;;;;;23.88;12.27;;;;;;;;;;5091298;28;20051;-73
2022/07/25 00:07:07;;;;;;;22.50;11.75;;;;;;;;;;5091146;28;20162;-73
2022/07/25 00:10:11;;;;;;;17.45;11.65;;;;;;;;;;5091555;28;20058;-73
2022/07/25 00:13:15;;;;;;;17.15;10.80;;;;;;;;;;5091236;28;20396;-72
2022/07/25 00:16:20;;;;;;;20.75;11.55;;;;;;;;;;5091210;28;20063;-72
2022/07/25 00:19:24;;;;;;;16.17;11.02;;;;;;;;;;5091473;28;20091;-72
2022/07/25 00:22:29;;;;;;;19.00;12.02;;;;;;;;;;5091003;28;20043;-72
2022/07/25 00:25:33;;;;;;;23.45;11.50;;;;;;;;;;5091060;28;20062;-72
2022/07/25 00:28:37;;;;;;;20.83;11.73;;;;;;;;;;5090899;28;20046;-72
2022/07/25 00:31:41;;;;;;;22.08;11.52;;;;;;;;;;5089776;28;20040;-72
2022/07/25 00:34:46;;;;;;;17.38;11.38;;;;;;;;;;5091243;28;20415;-73
2022/07/25 00:37:50;;;;;;;14.93;11.07;;;;;;;;;;5090353;28;20043;-73
2022/07/25 00:40:55;;;;;;;26.20;12.38;;;;;;;;;;5093335;28;20039;-72
2022/07/25 00:43:59;;;;;;;15.82;11.45;;;;;;;;;;5094571;28;20062;-73
2022/07/25 00:47:03;;;;;;;17.15;11.93;;;;;;;;;;5094876;28;20506;-73
2022/07/25 00:50:08;;;;;;;24.45;11.32;;;;;;;;;;5094911;28;20063;-72
2022/07/25 00:53:12;;;;;;;16.88;12.10;;;;;;;;;;5094422;28;20047;-74
2022/07/25 00:56:17;;;;;;;25.90;12.80;;;;;;;;;;5095669;28;20047;-73
2022/07/25 00:59:21;;;;;;;16.77;11.27;;;;;;;;;;5095299;28;20515;-73
2022/07/25 01:02:26;;;;;;;17.25;11.60;;;;;;;;;;5094731;28;20482;-72
2022/07/25 01:05:30;;;;;;;16.67;11.18;;;;;;;;;;5094663;28;20051;-73
2022/07/25 01:08:34;;;;;;;22.55;12.02;;;;;;;;;;5094864;28;20039;-74
2022/07/25 01:11:39;;;;;;;21.20;12.07;;;;;;;;;;5094769;28;20043;-73
2022/07/25 01:14:43;;;;;;;16.15;11.05;;;;;;;;;;5094736;28;20035;-73
2022/07/25 01:17:48;;;;;;;13.68;11.23;;;;;;;;;;5094786;28;20376;-74
2022/07/25 01:20:52;;;;;;;27.90;11.48;;;;;;;;;;5094471;28;20035;-73
2022/07/25 01:23:56;;;;;;;13.82;11.32;;;;;;;;;;5094403;28;20094;-73
2022/07/25 01:27:02;;;;;;;21.65;11.90;;;;;;;;;;5095169;28;20483;-72
2022/07/25 01:30:07;;;;;;;20.08;12.40;;;;;;;;;;5094526;28;20043;-72
2022/07/25 01:33:15;;;;;;;18.08;11.93;;;;;;;;;;5094678;28;20051;-74
2022/07/25 01:36:20;;;;;;;21.13;11.93;;;;;;;;;;5094337;28;20047;-73
2022/07/25 01:39:24;;;;;;;23.42;11.90;;;;;;;;;;5094328;28;20047;-73
2022/07/25 01:42:28;;;;;;;17.20;12.15;;;;;;;;;;5093881;28;20404;-73
2022/07/25 01:45:33;;;;;;;16.65;12.57;;;;;;;;;;5094224;28;20059;-73
2022/07/25 01:48:38;;;;;;;16.58;11.27;;;;;;;;;;5093893;28;20067;-73
2022/07/25 01:51:42;;;;;;;18.10;11.73;;;;;;;;;;5093595;28;20043;-73
2022/07/25 01:54:47;;;;;;;17.17;12.50;;;;;;;;;;5094017;28;20047;-71
2022/07/25 01:57:51;;;;;;;14.57;11.75;;;;;;;;;;5093658;28;20046;-71
2022/07/25 02:00:55;;;;;;;25.85;11.82;;;;;;;;;;5093847;28;20039;-72
2022/07/25 02:03:59;;;;;;;15.75;10.98;;;;;;;;;;5093877;28;20066;-72
2022/07/25 02:07:04;;;;;;;18.90;11.32;;;;;;;;;;5081305;28;20043;-73
2022/07/25 02:10:09;;;;;;;22.40;11.77;;;;;;;;;;5093821;28;20046;-72
2022/07/25 02:13:13;;;;;;;16.55;10.82;;;;;;;;;;5093563;28;20043;-73
2022/07/25 02:16:18;;;;;;;15.82;11.35;;;;;;;;;;5093889;28;20055;-73
2022/07/25 02:19:22;;;;;;;19.08;11.85;;;;;;;;;;5093914;28;20078;-73
2022/07/25 02:22:27;;;;;;;16.83;11.40;;;;;;;;;;5093557;28;20222;-74
2022/07/25 02:25:31;;;;;;;21.27;12.55;;;;;;;;;;5093970;28;20055;-73
2022/07/25 02:28:35;;;;;;;18.52;11.43;;;;;;;;;;5093442;28;20039;-72
2022/07/25 02:31:40;;;;;;;15.48;11.35;;;;;;;;;;5093358;28;20607;-73
2022/07/25 02:34:44;;;;;;;20.83;11.75;;;;;;;;;;5092281;28;20039;-72
2022/07/25 02:37:48;;;;;;;15.85;12.18;;;;;;;;;;5092887;28;20070;-73
2022/07/25 02:40:53;;;;;;;16.00;11.70;;;;;;;;;;5092864;28;20043;-72
2022/07/25 02:43:57;;;;;;;15.65;11.57;;;;;;;;;;5092967;28;20055;-73
2022/07/25 02:47:02;;;;;;;17.02;11.27;;;;;;;;;;5092888;28;20047;-71
2022/07/25 02:50:06;;;;;;;18.63;10.90;;;;;;;;;;5092647;28;20043;-71
2022/07/25 02:53:10;;;;;;;13.10;11.07;;;;;;;;;;5092817;28;20106;-73
2022/07/25 02:56:15;;;;;;;18.23;11.63;;;;;;;;;;5092800;28;20047;-72
2022/07/25 02:59:19;;;;;;;22.15;11.57;;;;;;;;;;5092963;28;20047;-72
2022/07/25 03:02:24;;;;;;;17.90;11.27;;;;;;;;;;5091877;28;20495;-73
2022/07/25 03:05:28;;;;;;;14.35;11.35;;;;;;;;;;5091382;28;20194;-72
2022/07/25 03:08:33;;;;;;;23.30;11.15;;;;;;;;;;5092549;28;20391;-72
2022/07/25 03:11:37;;;;;;;15.38;11.10;;;;;;;;;;5092409;28;20051;-72
2022/07/25 03:14:41;;;;;;;16.90;11.93;;;;;;;;;;5092313;28;20202;-73
2022/07/25 03:17:46;;;;;;;14.95;11.43;;;;;;;;;;5092491;28;20051;-72
2022/07/25 03:20:50;;;;;;;18.85;11.05;;;;;;;;;;5092286;28;20043;-72
2022/07/25 03:23:55;;;;;;;19.23;11.07;;;;;;;;;;5092121;28;20054;-72
2022/07/25 03:26:59;;;;;;;14.15;11.43;;;;;;;;;;5092322;28;20039;-72
2022/07/25 03:30:04;;;;;;;24.08;11.40;;;;;;;;;;5092076;28;20047;-72
2022/07/25 03:33:08;;;;;;;16.15;10.57;;;;;;;;;;5092415;28;20043;-72
2022/07/25 03:36:13;;;;;;;22.58;11.88;;;;;;;;;;5092152;28;20047;-72
2022/07/25 03:39:17;;;;;;;18.88;11.85;;;;;;;;;;5092800;28;20059;-73
2022/07/25 03:42:23;;;;;;;16.20;11.30;;;;;;;;;;5092003;28;20627;-73
2022/07/25 03:45:27;;;;;;;15.82;12.52;;;;;;;;;;5091779;28;20055;-72
2022/07/25 03:48:31;;;;;;;16.13;11.73;;;;;;;;;;5091976;28;20051;-73
2022/07/25 03:51:36;;;;;;;20.65;12.35;;;;;;;;;;5051897;28;20059;-73
2022/07/25 03:54:40;;;;;;;22.08;11.15;;;;;;;;;;5051538;28;20040;-72
2022/07/25 03:57:44;;;;;;;17.08;10.68;;;;;;;;;;5051470;28;20496;-73
2022/07/25 04:00:49;;;;;;;20.55;11.38;;;;;;;;;;5051692;28;20048;-72
2022/07/25 04:03:53;;;;;;;16.90;11.00;;;;;;;;;;5051617;28;20050;-71
2022/07/25 04:06:57;;;;;;;16.90;10.80;;;;;;;;;;5051237;28;20044;-72
2022/07/25 04:10:03;;;;;;;20.88;11.38;;;;;;;;;;5051614;28;20036;-74
2022/07/25 04:13:07;;;;;;;20.08;11.63;;;;;;;;;;5051335;28;20051;-73
2022/07/25 04:16:12;;;;;;;18.13;11.13;;;;;;;;;;5050525;28;20397;-72
2022/07/25 04:19:16;;;;;;;25.77;13.05;;;;;;;;;;5051816;28;20044;-72
2022/07/25 04:22:21;;;;;;;21.73;12.13;;;;;;;;;;5050734;28;20043;-73
2022/07/25 04:25:25;;;;;;;18.20;12.10;;;;;;;;;;5050875;28;20405;-73
2022/07/25 04:28:31;;;;;;;27.25;12.65;;;;;;;;;;5050961;28;20044;-73
2022/07/25 04:31:35;;;;;;;20.45;12.13;;;;;;;;;;5051053;28;20063;-73
2022/07/25 04:34:39;;;;;;;30.48;13.05;;;;;;;;;;5051262;28;20044;-73
2022/07/25 04:37:43;;;;;;;30.88;13.25;;;;;;;;;;5050933;28;20033;-72
2022/07/25 04:40:48;;;;;;;30.20;13.98;;;;;;;;;;5051212;28;20048;-72
2022/07/25 04:43:52;;;;;;;30.02;13.45;;;;;;;;;;5051028;28;20047;-72
2022/07/25 04:46:56;;;;;;;26.23;13.25;;;;;;;;;;5050636;28;20496;-73
2022/07/25 04:50:01;;;;;;;34.60;15.23;;;;;;;;;;5068154;28;20051;-73
2022/07/25 04:53:05;;;;;;;33.60;13.43;;;;;;;;;;5091284;28;20161;-73
2022/07/25 04:56:09;;;;;;;22.65;12.82;;;;;;;;;;5091420;28;20048;-72
2022/07/25 04:59:14;;;;;;;28.08;13.30;;;;;;;;;;5091307;28;20039;-74
2022/07/25 05:02:18;;;;;;;41.00;13.65;;;;;;;;;;5091086;28;20051;-73
2022/07/25 05:05:22;;;;;;;20.65;13.07;;;;;;;;;;5091015;28;20126;-73
2022/07/25 05:08:26;;;;;;;31.48;14.23;;;;;;;;;;5091085;28;20043;-73
2022/07/25 05:11:31;;;;;;;21.10;15.00;;;;;;;;;;5091483;28;20047;-73
2022/07/25 05:14:35;;;;;;;21.38;14.07;;;;;;;;;;5090758;28;20043;-73
2022/07/25 05:17:40;;;;;;;25.88;15.73;;;;;;;;;;5091118;28;20527;-72
2022/07/25 05:20:45;;;;;;;29.88;14.55;;;;;;;;;;5090380;28;20138;-73
2022/07/25 05:23:49;;;;;;;24.60;14.13;;;;;;;;;;5090794;28;20047;-72
2022/07/25 05:26:53;;;;;;;28.95;14.32;;;;;;;;;;5092657;28;20047;-72
2022/07/25 05:29:58;;;;;;;35.58;14.75;;;;;;;;;;5094852;28;20055;-72
2022/07/25 05:33:02;;;;;;;29.20;13.93;;;;;;;;;;5094695;28;20046;-73
2022/07/25 05:36:07;;;;;;;22.60;14.13;;;;;;;;;;5094672;28;20036;-73
2022/07/25 05:39:12;;;;;;;30.90;15.43;;;;;;;;;;5094415;28;20490;-73
2022/07/25 05:42:16;;;;;;;30.95;16.48;;;;;;;;;;5093467;28;20047;-73
2022/07/25 05:45:20;;;;;;;38.22;15.85;;;;;;;;;;5094344;28;20050;-73
2022/07/25 05:48:24;;;;;;;23.83;13.93;;;;;;;;;;5094942;28;20047;-72
2022/07/25 05:51:28;;;;;;;26.30;13.77;;;;;;;;;;5093736;28;20054;-72
2022/07/25 05:54:33;;;;;;;33.40;15.20;;;;;;;;;;5093533;28;20396;-71
2022/07/25 05:57:38;;;;;;;26.88;14.10;;;;;;;;;;5093455;28;20051;-72
2022/07/25 06:00:42;;;;;;;22.25;14.27;;;;;;;;;;5094014;28;20035;-70
2022/07/25 06:03:46;;;;;;;20.05;14.25;;;;;;;;;;5093031;28;20058;-72
2022/07/25 06:06:51;;;;;;;16.77;13.02;;;;;;;;;;5094021;28;20393;-71
2022/07/25 06:09:55;;;;;;;22.70;13.93;;;;;;;;;;5093974;28;20047;-73
2022/07/25 06:12:59;;;;;;;23.33;13.52;;;;;;;;;;5093899;28;20231;-72
2022/07/25 06:16:04;;;;;;;26.17;15.15;;;;;;;;;;5092197;28;20043;-72
2022/07/25 06:19:08;;;;;;;25.63;13.50;;;;;;;;;;5093423;28;20039;-71
2022/07/25 06:22:12;;;;;;;20.02;11.88;;;;;;;;;;5093514;28;20039;-71
2022/07/25 06:25:17;;;;;;;27.83;11.38;;;;;;;;;;5093523;28;20050;-71
2022/07/25 06:28:21;;;;;;;18.40;9.70;;;;;;;;;;5093657;28;20043;-71
2022/07/25 06:31:25;;;;;;;11.18;8.55;;;;;;;;;;5080957;28;20055;-70
2022/07/25 06:34:30;;;;;;;19.70;9.15;;;;;;;;;;5093455;28;20039;-71
2022/07/25 06:37:37;;;;;;;11.32;8.25;;;;;;;;;;5095995;28;20392;-69
2022/07/25 06:40:41;;;;;;;13.30;8.35;;;;;;;;;;5093597;28;20507;-70
2022/07/25 06:43:45;;;;;;;16.30;8.98;;;;;;;;;;5093384;28;20400;-71
2022/07/25 06:46:49;;;;;;;13.02;7.72;;;;;;;;;;5093448;28;20071;-71
2022/07/25 06:49:54;;;;;;;13.48;8.43;;;;;;;;;;5093219;28;20205;-71
2022/07/25 06:52:58;;;;;;;18.02;8.23;;;;;;;;;;5092142;28;20047;-70
2022/07/25 06:56:03;;;;;;;13.65;7.78;;;;;;;;;;5092833;28;20043;-71
2022/07/25 06:59:07;;;;;;;21.50;8.50;;;;;;;;;;5093430;28;20047;-71
2022/07/25 07:02:11;;;;;;;16.17;8.90;;;;;;;;;;5092550;28;20039;-69
2022/07/25 07:05:16;;;;;;;12.23;7.38;;;;;;;;;;5092899;28;20051;-70
2022/07/25 07:08:20;;;;;;;14.18;8.00;;;;;;;;;;5093045;28;20035;-70
2022/07/25 07:11:24;;;;;;;13.77;8.20;;;;;;;;;;5080340;28;20066;-71
2022/07/25 07:14:29;;;;;;;12.07;7.65;;;;;;;;;;5091780;28;20039;-71
2022/07/25 07:17:33;;;;;;;11.63;6.55;;;;;;;;;;5093113;28;20047;-71
2022/07/25 07:20:37;;;;;;;13.00;8.25;;;;;;;;;;5092838;28;20522;-72
2022/07/25 07:23:42;;;;;;;19.58;6.97;;;;;;;;;;5092118;28;20050;-72
2022/07/25 07:26:46;;;;;;;14.75;7.43;;;;;;;;;;5092572;28;20051;-71
2022/07/25 07:29:50;;;;;;;11.65;7.97;;;;;;;;;;5091685;28;20047;-72
2022/07/25 07:32:55;;;;;;;15.88;7.40;;;;;;;;;;5092610;28;20051;-72
2022/07/25 07:36:00;;;;;;;18.77;8.18;;;;;;;;;;5092701;28;20035;-72
2022/07/25 07:39:04;;;;;;;15.07;8.27;;;;;;;;;;5092533;28;20043;-72
2022/07/25 07:42:08;;;;;;;17.60;7.85;;;;;;;;;;5092112;28;20048;-69
2022/07/25 07:45:17;;;;;;;15.10;7.25;;;;;;;;;;5091637;28;20055;-69
2022/07/25 07:48:21;;;;;;;16.02;7.22;;;;;;;;;;5091517;28;20035;-71
2022/07/25 07:51:25;;;;;;;25.95;8.57;;;;;;;;;;5091522;28;20047;-70
2022/07/25 07:57:52;;;;;;;10.85;7.03;;;;;;;;;;5091136;28;20058;-68
2022/07/25 08:00:56;;;;;;;18.20;7.53;;;;;;;;;;5091956;28;20039;-70
2022/07/25 08:04:00;;;;;;;14.40;6.68;;;;;;;;;;5092248;28;20059;-70
2022/07/25 08:07:05;;;;;;;10.90;6.78;;;;;;;;;;5092163;28;20051;-67
2022/07/25 08:10:09;;;;;;;16.20;6.85;;;;;;;;;;5091853;28;20066;-70
2022/07/25 08:13:15;;;;;;;10.85;6.97;;;;;;;;;;5091068;28;20047;-69
2022/07/25 08:16:20;;;;;;;15.95;6.57;;;;;;;;;;5091288;28;20055;-68
2022/07/25 08:19:24;;;;;;;12.05;6.90;;;;;;;;;;5091342;28;20498;-70
2022/07/25 08:22:55;;;;;;;13.75;6.78;;;;;;;;;;5091222;28;20051;-68
2022/07/25 08:26:00;;;;;;;8.57;6.25;;;;;;;;;;5090076;28;20390;-70
2022/07/25 08:29:04;;;;;;;17.65;7.75;;;;;;;;;;5091075;28;20036;-70
2022/07/25 08:32:08;;;;;;;71.63;13.52;;;;;;;;;;5090908;28;20416;-68
2022/07/25 08:35:13;;;;;;;14.65;7.15;;;;;;;;;;5090294;28;20047;-67
2022/07/25 08:38:18;;;;;;;11.90;6.05;;;;;;;;;;5090954;28;20039;-70
2022/07/25 08:41:22;;;;;;;13.50;8.85;;;;;;;;;;5091139;28;20043;-70
2022/07/25 08:44:27;;;;;;;13.63;7.03;;;;;;;;;;5091111;28;20070;-69
2022/07/25 08:47:32;;;;;;;15.43;8.27;;;;;;;;;;5091088;28;20047;-67
2022/07/25 08:50:37;;;;;;;16.20;6.82;;;;;;;;;;5090411;28;20063;-70
2022/07/25 08:53:42;;;;;;;13.45;6.97;;;;;;;;;;5090642;28;20519;-70
2022/07/25 08:56:46;;;;;;;12.85;6.30;;;;;;;;;;5089897;28;20047;-70
2022/07/25 08:59:50;;;;;;;13.30;6.80;;;;;;;;;;5090783;28;20392;-68
2022/07/25 09:02:56;;;;;;;14.60;6.95;;;;;;;;;;5093832;28;20039;-69
2022/07/25 09:06:01;;;;;;;16.23;6.97;;;;;;;;;;5094712;28;20055;-69
2022/07/25 09:09:07;;;;;;;22.60;7.55;;;;;;;;;;5094662;28;20047;-70
2022/07/25 09:12:11;;;;;;;14.32;6.82;;;;;;;;;;5094802;28;20066;-70
2022/07/25 09:15:23;;;;;;;13.27;6.80;;;;;;;;;;5094885;28;20043;-71
2022/07/25 09:18:27;;;;;;;21.27;6.47;;;;;;;;;;5093590;28;20309;-69
2022/07/25 09:21:31;;;;;;;23.63;7.07;;;;;;;;;;5094381;28;20403;-69
2022/07/25 09:24:36;;;;;;;11.85;5.68;;;;;;;;;;5094611;28;20222;-68
2022/07/25 09:27:40;;;;;;;12.70;6.30;;;;;;;;;;5094534;28;20059;-69
2022/07/25 09:30:54;;;;;;;18.08;6.55;;;;;;;;;;5094313;28;20043;-68
2022/07/25 09:34:00;;;;;;;14.90;6.50;;;;;;;;;;5094332;28;20066;-72
2022/07/25 09:37:06;;;;;;;11.40;6.55;;;;;;;;;;5094156;28;20051;-72
2022/07/25 09:40:13;;;;;;;13.90;7.00;;;;;;;;;;5081493;28;20395;-70
2022/07/25 09:43:17;;;;;;;13.10;7.35;;;;;;;;;;5094234;28;20206;-72
2022/07/25 09:46:28;;;;;;;16.27;6.50;;;;;;;;;;5093785;28;20047;-70
2022/07/25 09:49:40;;;;;;;16.02;6.25;;;;;;;;;;5092836;28;20535;-70
2022/07/25 09:52:45;;;;;;;16.52;6.78;;;;;;;;;;5094232;28;20059;-68
2022/07/25 09:55:52;;;;;;;15.25;7.10;;;;;;;;;;5094108;28;20051;-73
2022/07/25 09:58:57;;;;;;;16.17;7.28;;;;;;;;;;5094201;28;20403;-72
2022/07/25 10:02:04;;;;;;;11.02;6.45;;;;;;;;;;5093740;28;20039;-72
2022/07/25 10:05:13;;;;;;;10.43;6.78;;;;;;;;;;5093611;28;20051;-73
2022/07/25 10:08:19;;;;;;;21.80;6.25;;;;;;;;;;5093804;28;20040;-76
2022/07/25 10:11:25;;;;;;;9.75;6.30;;;;;;;;;;5093340;28;20055;-73
2022/07/25 10:14:29;;;;;;;11.55;6.63;;;;;;;;;;5093281;28;20044;-71
2022/07/25 10:17:34;;;;;;;8.38;6.68;;;;;;;;;;5093014;28;20047;-72
2022/07/25 10:20:38;;;;;;;16.73;6.85;;;;;;;;;;5093845;28;20480;-72
2022/07/25 10:23:42;;;;;;;9.52;6.78;;;;;;;;;;5092297;28;20405;-71
2022/07/25 10:26:53;;;;;;;16.90;7.32;;;;;;;;;;5092650;28;20056;-71
2022/07/25 10:30:00;;;;;;;12.73;6.80;;;;;;;;;;5093715;28;20043;-72
2022/07/25 10:33:15;;;;;;;17.85;9.43;;;;;;;;;;5093002;28;20114;-72
2022/07/25 10:36:19;;;;;;;14.18;8.00;;;;;;;;;;5093468;28;20399;-71
2022/07/25 10:39:23;;;;;;;7.78;7.00;;;;;;;;;;5093014;28;20036;-72
2022/07/25 10:42:32;;;;;;;13.13;8.18;;;;;;;;;;5093137;28;20036;-72
2022/07/25 10:45:37;;;;;;;10.43;6.78;;;;;;;;;;5092834;28;20400;-73
2022/07/25 10:48:42;;;;;;;20.40;8.10;;;;;;;;;;5093093;28;20388;-74
2022/07/25 10:51:56;;;;;;;11.30;6.65;;;;;;;;;;5093450;28;20051;-72
2022/07/25 10:55:01;;;;;;;12.10;6.10;;;;;;;;;;5093517;28;20039;-72
2022/07/25 10:58:06;;;;;;;9.85;6.88;;;;;;;;;;5092796;28;20490;-72
2022/07/25 11:01:12;;;;;;;10.55;6.65;;;;;;;;;;5091968;28;20036;-72
2022/07/25 11:04:17;;;;;;;8.82;6.15;;;;;;;;;;5093003;28;20043;-72
2022/07/25 11:07:21;;;;;;;13.82;7.05;;;;;;;;;;5092357;28;20044;-71
2022/07/25 11:10:27;;;;;;;10.27;6.93;;;;;;;;;;5091658;28;20058;-72
2022/07/25 11:13:36;;;;;;;11.50;6.65;;;;;;;;;;5091383;28;20427;-73
2022/07/25 11:16:40;;;;;;;20.83;7.07;;;;;;;;;;5091512;28;20043;-72
2022/07/25 11:19:52;;;;;;;11.85;7.35;;;;;;;;;;5092489;28;20035;-72
2022/07/25 11:22:57;;;;;;;8.38;6.43;;;;;;;;;;5092564;28;20038;-70
2022/07/25 11:26:08;;;;;;;11.95;6.38;;;;;;;;;;5092326;28;20052;-73
2022/07/25 11:29:19;;;;;;;8.75;5.90;;;;;;;;;;5092283;28;20043;-73
2022/07/25 11:32:23;;;;;;;7.43;6.38;;;;;;;;;;5092461;28;20044;-72
2022/07/25 11:35:29;;;;;;;15.73;6.53;;;;;;;;;;5092596;28;20183;-72
2022/07/25 11:38:34;;;;;;;10.10;6.18;;;;;;;;;;5091760;28;20054;-72
2022/07/25 11:41:38;;;;;;;17.02;6.97;;;;;;;;;;5092404;28;20051;-73
2022/07/25 11:44:44;;;;;;;12.65;7.78;;;;;;;;;;5092186;28;20507;-72
2022/07/25 11:47:50;;;;;;;13.45;6.85;;;;;;;;;;5091910;28;20063;-73
2022/07/25 11:50:55;;;;;;;10.30;6.55;;;;;;;;;;5091938;28;20052;-72
2022/07/25 11:54:06;;;;;;;13.73;7.35;;;;;;;;;;5092243;28;20051;-72
2022/07/25 11:57:19;;;;;;;13.70;6.07;;;;;;;;;;5092094;28;20046;-72
2022/07/25 12:00:23;;;;;;;18.25;6.45;;;;;;;;;;5091756;28;20032;-71
2022/07/25 12:03:36;;;;;;;11.60;6.55;;;;;;;;;;5091002;28;20043;-72
2022/07/25 12:06:41;;;;;;;17.92;6.28;;;;;;;;;;5091988;28;20055;-74
2022/07/25 12:09:55;;;;;;;13.27;7.03;;;;;;;;;;5091793;28;20043;-71
2022/07/25 12:13:03;;;;;;;13.65;6.32;;;;;;;;;;5079267;28;20432;-71
2022/07/25 12:16:07;;;;;;;21.08;7.55;;;;;;;;;;5091699;28;20182;-73
2022/07/25 12:19:18;;;;;;;11.20;5.57;;;;;;;;;;5091328;28;20050;-71
2022/07/25 12:22:23;;;;;;;20.02;7.03;;;;;;;;;;5091693;28;20039;-71
2022/07/25 12:25:28;;;;;;;11.35;6.72;;;;;;;;;;5091461;28;20063;-73
2022/07/25 12:28:32;;;;;;;15.75;6.53;;;;;;;;;;5091986;28;20518;-74
2022/07/25 12:31:37;;;;;;;13.45;6.00;;;;;;;;;;5091180;28;20044;-71
2022/07/25 12:34:42;;;;;;;16.67;6.20;;;;;;;;;;5091120;28;20391;-71
2022/07/25 12:37:47;;;;;;;11.63;5.47;;;;;;;;;;5091839;28;20070;-72
2022/07/25 12:40:51;;;;;;;11.57;6.18;;;;;;;;;;5091702;28;20043;-71
2022/07/25 12:43:57;;;;;;;14.32;6.10;;;;;;;;;;5091715;28;20384;-72
2022/07/25 12:47:02;;;;;;;16.67;6.13;;;;;;;;;;5091046;28;20055;-73
2022/07/25 12:50:06;;;;;;;30.15;6.90;;;;;;;;;;5091153;28;20609;-72
2022/07/25 12:53:12;;;;;;;13.75;6.63;;;;;;;;;;5090941;28;20482;-73
2022/07/25 12:56:16;;;;;;;20.80;7.80;;;;;;;;;;5090493;28;20042;-71
2022/07/25 12:59:21;;;;;;;17.40;6.30;;;;;;;;;;5090970;28;20043;-72
2022/07/25 13:02:25;;;;;;;18.25;5.80;;;;;;;;;;5089962;28;20217;-75
2022/07/25 13:05:29;;;;;;;10.38;6.22;;;;;;;;;;5090929;28;20066;-70
2022/07/25 13:08:36;;;;;;;9.07;5.75;;;;;;;;;;5091216;28;20499;-68
2022/07/25 13:11:41;;;;;;;11.23;5.78;;;;;;;;;;5090965;28;20040;-68
2022/07/25 13:14:45;;;;;;;18.08;5.50;;;;;;;;;;5090924;28;20040;-70
2022/07/25 13:17:50;;;;;;;10.63;5.85;;;;;;;;;;5090880;28;20047;-68
2022/07/25 13:20:54;;;;;;;11.52;5.38;;;;;;;;;;5090931;28;20051;-70
2022/07/25 13:23:58;;;;;;;15.63;6.05;;;;;;;;;;5090671;28;20066;-70
2022/07/25 13:27:04;;;;;;;15.38;6.35;;;;;;;;;;5090801;28;20059;-72
2022/07/25 13:30:08;;;;;;;19.02;5.72;;;;;;;;;;5090863;28;20051;-73
2022/07/25 13:33:13;;;;;;;20.73;5.57;;;;;;;;;;5090722;28;20051;-72
2022/07/25 13:36:17;;;;;;;13.05;6.47;;;;;;;;;;5090478;28;20499;-73
2022/07/25 13:39:21;;;;;;;14.30;6.07;;;;;;;;;;5090404;28;20051;-71
2022/07/25 13:42:26;;;;;;;19.50;5.97;;;;;;;;;;5090838;28;20047;-71
2022/07/25 13:45:30;;;;;;;18.75;5.55;;;;;;;;;;5089373;28;20063;-69
2022/07/25 13:48:34;;;;;;;16.63;5.47;;;;;;;;;;5093433;28;20060;-68
2022/07/25 13:51:39;;;;;;;14.45;5.20;;;;;;;;;;5094283;28;20047;-70
2022/07/25 13:54:43;;;;;;;16.80;6.00;;;;;;;;;;5093292;28;20047;-71
2022/07/25 13:57:47;;;;;;;14.80;5.38;;;;;;;;;;5094286;28;20043;-71
2022/07/25 14:00:52;;;;;;;13.90;5.25;;;;;;;;;;5094035;28;20392;-70
2022/07/25 14:03:57;;;;;;;16.48;5.70;;;;;;;;;;5093802;28;20376;-71
2022/07/25 14:07:01;;;;;;;21.85;5.88;;;;;;;;;;5092501;28;20051;-71
2022/07/25 14:10:08;;;;;;;15.07;5.45;;;;;;;;;;5093974;28;20297;-70
2022/07/25 14:13:13;;;;;;;16.13;5.80;;;;;;;;;;5093669;28;20050;-70
2022/07/25 14:16:18;;;;;;;10.95;5.60;;;;;;;;;;5093414;28;20091;-70
2022/07/25 14:19:23;;;;;;;10.40;5.45;;;;;;;;;;5092982;28;20408;-72
2022/07/25 14:22:27;;;;;;;18.08;6.82;;;;;;;;;;5093486;28;20399;-71
2022/07/25 14:25:33;;;;;;;50.15;8.82;;;;;;;;;;5093454;28;20515;-68
2022/07/25 14:28:37;;;;;;;14.45;5.88;;;;;;;;;;5093320;28;20082;-70
2022/07/25 14:31:41;;;;;;;19.63;6.03;;;;;;;;;;5093386;28;20047;-70
2022/07/25 14:34:45;;;;;;;11.50;5.47;;;;;;;;;;5093081;28;20047;-69
2022/07/25 14:37:50;;;;;;;14.60;5.13;;;;;;;;;;5093117;28;20039;-71
2022/07/25 14:40:54;;;;;;;13.90;5.53;;;;;;;;;;5092993;28;20039;-71
2022/07/25 14:43:58;;;;;;;12.82;4.78;;;;;;;;;;5093004;28;20637;-70
2022/07/25 14:47:03;;;;;;;12.98;5.18;;;;;;;;;;5092863;28;20062;-72
2022/07/25 14:50:08;;;;;;;8.68;4.93;;;;;;;;;;5092786;28;20059;-71
2022/07/25 14:53:12;;;;;;;10.63;5.80;;;;;;;;;;5091977;28;20490;-72
2022/07/25 14:56:17;;;;;;;17.50;5.78;;;;;;;;;;5093031;28;20039;-70
2022/07/25 14:59:22;;;;;;;16.33;5.13;;;;;;;;;;5090913;28;20051;-73
2022/07/25 15:02:26;;;;;;;14.75;5.20;;;;;;;;;;5092774;28;20058;-72
2022/07/25 15:05:31;;;;;;;11.13;5.07;;;;;;;;;;5092870;28;20055;-74
2022/07/25 15:08:37;;;;;;;16.30;6.15;;;;;;;;;;5092645;28;20043;-71
2022/07/25 15:11:42;;;;;;;11.45;5.70;;;;;;;;;;5092483;28;20047;-71
2022/07/25 15:14:46;;;;;;;12.35;6.03;;;;;;;;;;5092463;28;20526;-72
2022/07/25 15:17:50;;;;;;;13.48;5.35;;;;;;;;;;5092584;28;20043;-71
2022/07/25 15:20:55;;;;;;;17.52;6.15;;;;;;;;;;5092827;28;20055;-71
2022/07/25 15:23:59;;;;;;;16.17;5.40;;;;;;;;;;5092139;28;20039;-74
2022/07/25 15:27:04;;;;;;;14.45;5.75;;;;;;;;;;5092402;28;20055;-75
2022/07/25 15:30:08;;;;;;;11.57;5.93;;;;;;;;;;5092020;28;20404;-74
2022/07/25 15:33:17;;;;;;;25.15;5.40;;;;;;;;;;5091931;28;20047;-71
2022/07/25 15:36:21;;;;;;;18.05;5.97;;;;;;;;;;5091028;28;20036;-70
2022/07/25 15:39:25;;;;;;;33.53;6.70;;;;;;;;;;5091606;28;20055;-72
2022/07/25 15:42:31;;;;;;;13.43;5.68;;;;;;;;;;5092018;28;20051;-68
2022/07/25 15:45:39;;;;;;;13.35;5.40;;;;;;;;;;5091718;28;20114;-72
2022/07/25 15:48:44;;;;;;;16.75;5.65;;;;;;;;;;5091076;28;20038;-70
2022/07/25 15:51:49;;;;;;;14.70;5.25;;;;;;;;;;5079029;28;20055;-71
2022/07/25 15:54:53;;;;;;;10.93;5.13;;;;;;;;;;5092021;28;20055;-72
2022/07/25 15:57:58;;;;;;;11.25;5.93;;;;;;;;;;5091888;28;20043;-72
2022/07/25 16:01:02;;;;;;;13.52;5.03;;;;;;;;;;5091405;28;20056;-73
2022/07/25 16:04:06;;;;;;;41.33;8.02;;;;;;;;;;5091504;28;20043;-73
2022/07/25 16:07:11;;;;;;;44.30;8.13;;;;;;;;;;5091177;28;20074;-72
2022/07/25 16:10:15;;;;;;;21.35;5.55;;;;;;;;;;5091161;28;20681;-74
2022/07/25 16:13:20;;;;;;;16.40;5.80;;;;;;;;;;5090594;28;20047;-73
2022/07/25 16:16:24;;;;;;;23.73;6.47;;;;;;;;;;5090668;28;20043;-74
2022/07/25 16:19:29;;;;;;;14.55;5.68;;;;;;;;;;5091585;28;20072;-75
2022/07/25 16:22:33;;;;;;;14.35;6.80;;;;;;;;;;5091238;28;20400;-75
2022/07/25 16:25:37;;;;;;;9.43;6.22;;;;;;;;;;5091410;28;20279;-80
2022/07/25 16:28:42;;;;;;;9.30;5.95;;;;;;;;;;5091510;28;20036;-75
2022/07/25 16:31:46;;;;;;;19.80;7.03;;;;;;;;;;5091576;28;20389;-82
2022/07/25 16:34:51;;;;;;;16.40;6.45;;;;;;;;;;5091827;28;20039;-79
2022/07/25 16:37:55;;;;;;;16.38;6.13;;;;;;;;;;5092427;28;20059;-74
2022/07/25 16:40:59;;;;;;;12.95;6.53;;;;;;;;;;5090867;28;20050;-77
2022/07/25 16:44:03;;;;;;;11.02;6.60;;;;;;;;;;5091270;28;20044;-75
2022/07/25 16:47:08;;;;;;;13.82;5.93;;;;;;;;;;5090999;28;20511;-75
2022/07/25 16:50:12;;;;;;;24.85;7.20;;;;;;;;;;5091216;28;20051;-76
2022/07/25 16:53:16;;;;;;;18.67;6.57;;;;;;;;;;5090980;28;20043;-74
2022/07/25 16:56:21;;;;;;;23.45;7.20;;;;;;;;;;5091367;28;20043;-79
2022/07/25 16:59:25;;;;;;;41.30;8.27;;;;;;;;;;5091367;28;20380;-80
2022/07/25 17:02:29;;;;;;;19.42;7.28;;;;;;;;;;5090591;28;20055;-77
2022/07/25 17:05:34;;;;;;;29.13;7.50;;;;;;;;;;5091053;28;20039;-76
2022/07/25 17:08:38;;;;;;;31.15;8.80;;;;;;;;;;5091244;28;20051;-75
2022/07/25 17:11:43;;;;;;;15.90;7.30;;;;;;;;;;5090879;28;20043;-75
2022/07/25 17:14:48;;;;;;;14.13;6.45;;;;;;;;;;5091319;28;20079;-76
2022/07/25 17:17:52;;;;;;;11.68;6.22;;;;;;;;;;5089885;28;20047;-77
2022/07/25 17:20:57;;;;;;;16.98;6.93;;;;;;;;;;5090692;28;20039;-76
2022/07/25 17:24:01;;;;;;;13.73;6.90;;;;;;;;;;5093576;28;20040;-77
2022/07/25 17:27:06;;;;;;;13.50;6.72;;;;;;;;;;5094482;28;20054;-79
2022/07/25 17:30:11;;;;;;;17.80;7.32;;;;;;;;;;5094644;28;20507;-76
2022/07/25 17:33:15;;;;;;;19.35;8.68;;;;;;;;;;5093452;28;20070;-76
2022/07/25 17:36:19;;;;;;;17.33;7.10;;;;;;;;;;5094397;28;20392;-76
2022/07/25 17:39:24;;;;;;;12.52;6.30;;;;;;;;;;5094165;28;20051;-76
2022/07/25 17:42:29;;;;;;;13.68;6.53;;;;;;;;;;5093491;28;20190;-75
2022/07/25 17:45:34;;;;;;;24.67;6.97;;;;;;;;;;5094743;28;20055;-77
2022/07/25 17:48:38;;;;;;;18.17;8.15;;;;;;;;;;5094233;28;20459;-77
2022/07/25 17:51:42;;;;;;;28.80;7.93;;;;;;;;;;5093719;28;20392;-77
2022/07/25 17:54:46;;;;;;;32.08;7.82;;;;;;;;;;5094352;28;20043;-77
2022/07/25 17:57:54;;;;;;;25.42;7.63;;;;;;;;;;5094485;28;20039;-77
2022/07/25 18:00:58;;;;;;;23.60;9.75;;;;;;;;;;5094708;28;20047;-78
2022/07/25 18:04:03;;;;;;;21.25;8.57;;;;;;;;;;5092740;28;20051;-79
2022/07/25 18:07:07;;;;;;;21.60;8.73;;;;;;;;;;5093081;28;20055;-77
2022/07/25 18:10:12;;;;;;;26.58;8.95;;;;;;;;;;5093860;28;20039;-76